Hovedside
METAR-TAF:

METAR-TAF

Lufthavner :

Léon M'ba internasjonale lufthavn

Libreville, Gabon

breddegrad: 00-27N, lengdegrad: 009-25E, høyde over havet: 12 m

Gjeldene værobservasjon

Denne rapporten ble laget for 53 minutter siden, klokken 11:00 UTC
Vind 4 kt fra Sørvest, skiftende mellom Øst-sørøst og Vest-nordvest
Temperatur 28°C
Luftfuktighet 70%
Trykk 1016 hPa
Sikt 10 km eller mer
Få skyer i en høyde av 1300 ft

METAR: FOOL 041100Z 22004KT 120V290 9999 FEW013 28/22 Q1016 NOSIG

Tid: 12:53 (11:53 UTC)

Varsel

Denne rapporten ble laget for 53 minutter siden, klokken 11:00 UTC
Varsel gyldig fra 04. klokken 12 UTC til 05. klokken 18 UTC
Vind 8 kt fra Sør-sørvest
Sikt: 8000 m
Spredte skyer i en høyde av 1200 ft
Brutte skyer i en høyde av 3300 ft

TAF: FOOL 041100Z 0412/0518 21008KT 8000 SCT012 BKN033

Værobservasjoner og værvarsel for over 4000 flyplasser (METAR- og TAF-rapporter).

Tilgjengelige stasjoner er representert av de røde og gule prikkene på kartet.

Hold musepekeren over prikken for å se navnet på stasjonen.

Klikk så for å se værobservasjoner og -varsler.

For å forandre kartet kan du klikke på den grønne knappen med svart kryss for å zoome inn, på den grønne knappen med strek for å zoome ut, eller på de grønne pilene for å se tilstøtende kart.


METAR-TAF: